Westrac — WTH4325 — position and weather

sailwx.info

Track history (hours):
 
Tides and Currents Weather Stations Pressure Air Temp Water Temp Dewpoint Dewpoint Depression Visibility Wind Speed Wind Dir Waves Ship Positions

Westrac

Owner: WESTERN TOWBOAT CO, SEATTLE, WA. More information available from US FCC via Universal Licensing System and Coast Guard Vessel Documentation Center.

Last reported at 2014-Nov-26 22:49 UTC. Time now 2014-Nov-28 09:45 UTC.
Position N 47°34' W 122°21'.

Length 23 m; draft 5 m.

Type: Tug. MMSI: 366993010.

Date/timePositionNaut miles runAvg speedWind from/ knotsBaromVisibWave heightAir tempDewpointWater temp
2014-Nov-26 22:49N 47°34' W 122°21'1 3.1
2014-Nov-26 22:33N 47°33' W 122°21'0 0.6
2014-Nov-26 22:29N 47°33' W 122°21'3 3.5
2014-Nov-26 21:33N 47°36' W 122°23'0 5.0
2014-Nov-26 21:29N 47°36' W 122°22'2 2.2
2014-Nov-26 20:33N 47°34' W 122°21'0 0.1
2014-Nov-26 20:29N 47°34' W 122°21'0 0.0
2014-Nov-26 19:33N 47°34' W 122°21'0 0.0
2014-Nov-26 19:29N 47°34' W 122°21'1 1.4
2014-Nov-26 18:34N 47°33' W 122°20'0 8.9
2014-Nov-26 18:33N 47°33' W 122°20'1 1.2
2014-Nov-26 17:33N 47°34' W 122°21'0 0.0
2014-Nov-26 17:29N 47°34' W 122°21'1 1.4
2014-Nov-26 16:33N 47°35' W 122°21'3 2.6
2014-Nov-26 15:33N 47°33' W 122°20'1 1.5
2014-Nov-26 14:33N 47°34' W 122°21'0 3.7
2014-Nov-26 14:29N 47°34' W 122°21'0 0.0
2014-Nov-26 01:45N 47°34' W 122°21'1 3.8
2014-Nov-26 01:33N 47°33' W 122°21'0 0.3
2014-Nov-26 01:21N 47°33' W 122°21'1 0.1
2014-Nov-25 19:33N 47°34' W 122°21'1 5.0
2014-Nov-25 19:19N 47°33' W 122°20'1 0.9
2014-Nov-25 18:33N 47°33' W 122°21'0 7.9
2014-Nov-25 18:33N 47°33' W 122°21'2 2.1
2014-Nov-25 17:33N 47°35' W 122°21'0 0.0
2014-Nov-25 17:33N 47°35' W 122°21'0 0.1
2014-Nov-25 16:33N 47°35' W 122°21'014.6
2014-Nov-25 16:33N 47°35' W 122°21'1 1.1
2014-Nov-25 15:33N 47°34' W 122°21'0 8.4
2014-Nov-25 15:33N 47°34' W 122°21'2 2.0
2014-Nov-25 14:33N 47°36' W 122°22'0 0.0
2014-Nov-25 14:33N 47°36' W 122°22'2 2.1
2014-Nov-25 13:33N 47°34' W 122°21'0 0.0
2014-Nov-25 13:33N 47°34' W 122°21'0 0.0
2014-Nov-25 12:33N 47°34' W 122°21'0 0.4
2014-Nov-25 12:33N 47°34' W 122°21'0 0.0
2014-Nov-25 11:33N 47°34' W 122°21'0 0.0
2014-Nov-25 11:33N 47°34' W 122°21'0 0.0
2014-Nov-25 10:33N 47°34' W 122°21'0 0.1
2014-Nov-25 10:28N 47°34' W 122°21'0 0.0
2014-Nov-25 09:33N 47°34' W 122°21'0 0.0
2014-Nov-25 09:31N 47°34' W 122°21'0 0.0
2014-Nov-25 08:33N 47°34' W 122°21'0 0.0
2014-Nov-25 08:31N 47°34' W 122°21'0 0.0
2014-Nov-25 07:33N 47°34' W 122°21'0 0.0
2014-Nov-25 07:32N 47°34' W 122°21'0 0.0
2014-Nov-25 07:01N 47°34' W 122°21'0 0.0
2014-Nov-25 06:33N 47°34' W 122°21'0 0.0
2014-Nov-25 05:33N 47°34' W 122°21'0 0.0
2014-Nov-25 05:31N 47°34' W 122°21'0 0.0
2014-Nov-25 04:33N 47°34' W 122°21'0 0.1
2014-Nov-25 04:31N 47°34' W 122°21'0 0.0
2014-Nov-25 03:33N 47°34' W 122°21'0 0.0
2014-Nov-25 03:31N 47°34' W 122°21'0 0.0
2014-Nov-25 02:33N 47°34' W 122°21'0 0.1
2014-Nov-25 02:31N 47°34' W 122°21'0 0.1
2014-Nov-25 01:33N 47°34' W 122°21'0 4.9
2014-Nov-25 01:31N 47°34' W 122°21'1 1.5
2014-Nov-25 00:33N 47°36' W 122°22'0 0.0
2014-Nov-25 00:31N 47°36' W 122°22'0 0.0
2014-Nov-24 23:33N 47°36' W 122°22'0 0.1
2014-Nov-24 23:31N 47°36' W 122°22'0 0.0
2014-Nov-24 22:33N 47°36' W 122°22'0 0.9
2014-Nov-24 22:31N 47°36' W 122°22'0 0.0
2014-Nov-24 21:33N 47°36' W 122°22'0 0.1
2014-Nov-24 21:30N 47°36' W 122°22'0 0.0
2014-Nov-24 20:33N 47°36' W 122°22'0 0.0
2014-Nov-24 20:30N 47°36' W 122°22'3 3.0
2014-Nov-24 19:33N 47°33' W 122°20'0 7.1
2014-Nov-24 19:30N 47°33' W 122°20'3 3.4
2014-Nov-24 18:33N 47°35' W 122°22'0 0.3
2014-Nov-24 18:30N 47°35' W 122°22'2 1.8
2014-Nov-24 17:33N 47°34' W 122°21'1 7.0
2014-Nov-24 17:29N 47°33' W 122°21'1 0.8
2014-Nov-24 16:34N 47°34' W 122°21'0 0.0
2014-Nov-24 16:33N 47°34' W 122°21'2 1.6
2014-Nov-24 15:33N 47°35' W 122°22'0 0.0
2014-Nov-24 15:33N 47°35' W 122°22'0 0.4
2014-Nov-24 14:33N 47°36' W 122°22'0 9.2
2014-Nov-24 14:33N 47°36' W 122°22'6 5.9
2014-Nov-24 13:33N 47°34' W 122°30'0 7.2
2014-Nov-24 13:33N 47°34' W 122°30'5 4.9
2014-Nov-24 12:33N 47°36' W 122°23'0 9.8
2014-Nov-24 12:33N 47°36' W 122°23'3 3.0
2014-Nov-24 11:33N 47°34' W 122°21'0 9.9
2014-Nov-24 11:33N 47°34' W 122°21'0 0.0
2014-Nov-23 17:33N 47°33' W 122°21'1 0.7
2014-Nov-23 16:33N 47°34' W 122°21'1 3.5
2014-Nov-23 16:13N 47°33' W 122°20'0 0.4
2014-Nov-23 15:33N 47°33' W 122°20'0 0.0
2014-Nov-23 15:33N 47°33' W 122°20'1 1.1
2014-Nov-23 14:33N 47°34' W 122°21'0 0.0
2014-Nov-23 01:47N 47°34' W 122°21'2 8.8
2014-Nov-23 01:33N 47°36' W 122°22'0 8.3
2014-Nov-23 01:32N 47°36' W 122°22'1 1.0
2014-Nov-23 00:33N 47°35' W 122°21'0 0.4
2014-Nov-23 00:32N 47°35' W 122°21'1 0.9
2014-Nov-22 23:33N 47°34' W 122°21'0 7.1
2014-Nov-22 23:31N 47°35' W 122°22'1 0.8
2014-Nov-22 22:33N 47°35' W 122°21'0 0.2
2014-Nov-22 22:31N 47°35' W 122°21'0 0.0
2014-Nov-22 21:33N 47°35' W 122°21'0 0.0
2014-Nov-22 21:31N 47°35' W 122°21'1 0.7
2014-Nov-22 20:33N 47°35' W 122°22'0 8.5
2014-Nov-22 20:31N 47°35' W 122°22'1 1.5
2014-Nov-22 19:33N 47°34' W 122°21'0 0.0
2014-Nov-22 19:31N 47°34' W 122°21'2 1.7
2014-Nov-22 18:31N 47°36' W 122°22'0 0.0
2014-Nov-22 18:31N 47°36' W 122°22'3 3.0
2014-Nov-22 17:33N 47°33' W 122°20'0 0.5
2014-Nov-22 17:31N 47°33' W 122°20'2 2.0
2014-Nov-22 16:33N 47°35' W 122°22'0 8.5
2014-Nov-22 16:31N 47°34' W 122°21'0 0.3
2014-Nov-22 15:33N 47°34' W 122°21'0 1.8
2014-Nov-22 15:30N 47°34' W 122°21'1 0.7
2014-Nov-22 14:33N 47°33' W 122°21'0 0.0
2014-Nov-22 14:30N 47°33' W 122°21'0 0.0
2014-Nov-22 13:24N 47°33' W 122°21'0 0.1
2014-Nov-22 11:33N 47°33' W 122°21'0 0.1
2014-Nov-22 10:29N 47°33' W 122°21'0 0.0
2014-Nov-22 09:57N 47°33' W 122°21'0 0.0
2014-Nov-22 09:33N 47°33' W 122°21'0 0.0
2014-Nov-22 08:32N 47°33' W 122°21'0 0.0
2014-Nov-22 07:38N 47°33' W 122°21'0 0.0
2014-Nov-22 07:30N 47°33' W 122°21'2 2.6
2014-Nov-22 06:33N 47°36' W 122°22'0 1.1
2014-Nov-22 06:32N 47°36' W 122°22'2 1.7
2014-Nov-22 05:33N 47°34' W 122°21'0 0.5
2014-Nov-22 05:32N 47°34' W 122°21'0 0.0
2014-Nov-22 04:33N 47°34' W 122°21'0 0.0
2014-Nov-22 04:32N 47°34' W 122°21'1 1.5
2014-Nov-22 03:33N 47°36' W 122°22'0 2.0
2014-Nov-22 03:32N 47°35' W 122°22'0 0.3
2014-Nov-22 02:33N 47°35' W 122°22'0 5.5
2014-Nov-22 02:32N 47°35' W 122°22'2 2.4
2014-Nov-22 01:33N 47°33' W 122°20'0 0.0
2014-Nov-22 01:31N 47°33' W 122°20'0 0.3
2014-Nov-22 00:33N 47°33' W 122°20'0 4.8
2014-Nov-22 00:31N 47°33' W 122°20'0 0.4
2014-Nov-21 23:33N 47°33' W 122°21'0 0.0
2014-Nov-21 23:31N 47°33' W 122°21'1 0.9
2014-Nov-21 22:33N 47°34' W 122°21'0 0.0
2014-Nov-21 22:31N 47°34' W 122°21'0 0.0
2014-Nov-21 21:33N 47°34' W 122°21'0 0.0
2014-Nov-21 21:32N 47°34' W 122°21'0 0.0
2014-Nov-21 20:33N 47°34' W 122°21'0 0.0
2014-Nov-21 20:26N 47°34' W 122°21'0 0.0
2014-Nov-21 19:33N 47°34' W 122°21'0 0.0
2014-Nov-21 19:31N 47°34' W 122°21'0 0.0
2014-Nov-21 18:33N 47°34' W 122°21'0 0.0
2014-Nov-21 18:31N 47°34' W 122°21'0 0.0
2014-Nov-21 17:33N 47°34' W 122°21'0 0.0
2014-Nov-21 17:20N 47°34' W 122°21'0 0.0
2014-Nov-21 16:33N 47°34' W 122°21'0 0.0
2014-Nov-21 16:30N 47°34' W 122°21'0 0.0
2014-Nov-21 15:33N 47°34' W 122°21'0 0.0
2014-Nov-21 15:30N 47°34' W 122°21'0 0.0
2014-Nov-21 14:33N 47°34' W 122°21'0 0.1
2014-Nov-21 14:30N 47°34' W 122°21'2 1.7
2014-Nov-21 13:33N 47°35' W 122°22'0 0.2
2014-Nov-21 13:29N 47°35' W 122°22'2 2.6
2014-Nov-21 12:33N 47°33' W 122°21'0 0.0
2014-Nov-21 12:29N 47°33' W 122°21'1 0.1
2014-Nov-21 04:20N 47°34' W 122°21'0 0.4
2014-Nov-21 04:18N 47°34' W 122°21'1 1.6
2014-Nov-21 03:33N 47°35' W 122°21'0 0.0
2014-Nov-21 03:33N 47°35' W 122°21'1 0.9
2014-Nov-21 02:33N 47°35' W 122°22'0 3.3
2014-Nov-21 02:32N 47°35' W 122°23'1 0.6
2014-Nov-21 01:33N 47°35' W 122°22'0 5.4
2014-Nov-21 01:33N 47°35' W 122°22'1 1.5
2014-Nov-21 00:33N 47°34' W 122°21'0 4.9
2014-Nov-21 00:33N 47°34' W 122°21'0 0.2
2014-Nov-20 22:36N 47°34' W 122°21'0 0.0
2014-Nov-20 22:34N 47°34' W 122°21'0 0.2
2014-Nov-20 22:31N 47°34' W 122°21'0 0.4
2014-Nov-20 21:33N 47°34' W 122°21'0 4.4
2014-Nov-20 21:30N 47°35' W 122°22'1 1.2
2014-Nov-20 20:33N 47°35' W 122°23'0 0.2
2014-Nov-20 20:31N 47°35' W 122°23'0 0.0
2014-Nov-20 19:33N 47°35' W 122°23'0 0.2
2014-Nov-20 19:31N 47°35' W 122°23'0 0.0
2014-Nov-20 18:33N 47°35' W 122°23'0 0.0
2014-Nov-20 18:31N 47°35' W 122°23'2 2.2
2014-Nov-20 17:33N 47°35' W 122°26'1 6.2
2014-Nov-20 17:21N 47°35' W 122°27'1 1.7
2014-Nov-20 16:34N 47°35' W 122°26'0 8.5
2014-Nov-20 16:30N 47°36' W 122°25'2 2.5
2014-Nov-20 15:33N 47°35' W 122°22'0 4.5
2014-Nov-20 15:30N 47°35' W 122°22'0 0.5
2014-Nov-20 14:34N 47°35' W 122°22'0 0.0
2014-Nov-20 14:30N 47°35' W 122°22'0 0.1
2014-Nov-20 13:34N 47°35' W 122°22'0 0.1
2014-Nov-20 13:30N 47°35' W 122°22'0 0.1
2014-Nov-20 12:34N 47°35' W 122°22'0 0.1
2014-Nov-20 12:30N 47°35' W 122°22'0 0.1
2014-Nov-20 11:34N 47°35' W 122°22'0 0.0
2014-Nov-20 11:29N 47°35' W 122°22'0 0.0
2014-Nov-20 10:33N 47°35' W 122°22'0 0.2
2014-Nov-20 10:29N 47°35' W 122°22'0 0.0
2014-Nov-20 09:33N 47°35' W 122°22'0 0.1
2014-Nov-20 09:29N 47°35' W 122°22'0 0.0
2014-Nov-20 08:33N 47°35' W 122°22'0 0.2
2014-Nov-20 08:28N 47°35' W 122°22'0 0.0
2014-Nov-20 07:49N 47°35' W 122°22'0 0.0
2014-Nov-20 07:34N 47°35' W 122°22'2 1.7
2014-Nov-20 06:31N 47°34' W 122°21'0 0.2
2014-Nov-20 06:28N 47°34' W 122°21'1 0.7
2014-Nov-20 05:33N 47°33' W 122°21'0 2.3
2014-Nov-20 05:33N 47°33' W 122°21'4 4.5
2014-Nov-20 04:33N 47°34' W 122°27'0 7.5
2014-Nov-20 04:32N 47°34' W 122°27'2 1.6
2014-Nov-20 03:33N 47°33' W 122°29'0 0.0
2014-Nov-20 03:32N 47°33' W 122°29'0 0.0
2014-Nov-20 02:34N 47°33' W 122°29'0 0.0
2014-Nov-20 01:33N 47°33' W 122°29'3 6.6
2014-Nov-20 01:09N 47°35' W 122°26'4 6.0
2014-Nov-20 00:33N 47°34' W 122°21'0 4.8
2014-Nov-20 00:29N 47°34' W 122°21'0 0.4
2014-Nov-19 23:33N 47°34' W 122°21'0 5.0
2014-Nov-19 23:29N 47°34' W 122°21'4 3.9
2014-Nov-19 22:33N 47°38' W 122°23'0 1.5
2014-Nov-19 22:28N 47°38' W 122°23'3 3.0
2014-Nov-19 21:34N 47°35' W 122°22'015.3
2014-Nov-19 21:33N 47°35' W 122°22'1 1.0
2014-Nov-19 20:33N 47°34' W 122°21'0 0.0
2014-Nov-19 20:23N 47°34' W 122°21'0 0.0
2014-Nov-19 19:33N 47°34' W 122°21'0 0.0
2014-Nov-19 19:32N 47°34' W 122°21'1 0.6
2014-Nov-19 18:33N 47°34' W 122°21'0 6.7
2014-Nov-19 18:32N 47°35' W 122°22'5 5.1
2014-Nov-19 17:34N 47°34' W 122°29'4 8.3
2014-Nov-19 17:05N 47°36' W 122°24'2 4.8
2014-Nov-19 16:34N 47°34' W 122°21'0 5.4
2014-Nov-19 16:30N 47°34' W 122°21'6 6.0
2014-Nov-19 15:34N 47°33' W 122°29'0 0.1
2014-Nov-19 15:30N 47°33' W 122°29'5 5.5
2014-Nov-19 14:32N 47°35' W 122°22'1 6.4
2014-Nov-19 14:19N 47°33' W 122°21'1 1.1
2014-Nov-19 13:34N 47°34' W 122°21'0 0.0
2014-Nov-19 13:29N 47°34' W 122°21'0 0.0
2014-Nov-19 12:33N 47°34' W 122°21'0 0.0
2014-Nov-19 12:29N 47°34' W 122°21'0 0.0
2014-Nov-19 11:33N 47°34' W 122°21'0 0.0
2014-Nov-19 11:29N 47°34' W 122°21'0 0.0
2014-Nov-19 10:33N 47°34' W 122°21'0 0.1
2014-Nov-19 10:29N 47°34' W 122°21'0 0.0
2014-Nov-19 09:33N 47°34' W 122°21'0 0.0
2014-Nov-19 09:29N 47°34' W 122°21'0 0.0
2014-Nov-19 08:33N 47°34' W 122°21'0 0.1
2014-Nov-19 08:28N 47°34' W 122°21'0 0.0
2014-Nov-19 07:34N 47°34' W 122°21'0 0.0
2014-Nov-19 07:33N 47°34' W 122°21'0 0.0
2014-Nov-19 06:58N 47°34' W 122°21'0 0.0
2014-Nov-19 06:33N 47°34' W 122°21'0 0.0
2014-Nov-19 05:34N 47°34' W 122°21'0 0.0
2014-Nov-19 05:33N 47°34' W 122°21'1 0.6
2014-Nov-19 04:33N 47°34' W 122°21'0 0.0
2014-Nov-19 04:33N 47°34' W 122°21'2 1.8
2014-Nov-19 03:33N 47°35' W 122°21'0 0.0
2014-Nov-19 03:33N 47°35' W 122°21'2 2.4
2014-Nov-19 02:34N 47°33' W 122°20'0 3.9
2014-Nov-19 02:32N 47°33' W 122°20'3 2.9
2014-Nov-19 01:33N 47°36' W 122°22'0 7.3
2014-Nov-19 01:33N 47°36' W 122°22'0 0.5
2014-Nov-19 00:34N 47°35' W 122°23'0 0.6
2014-Nov-19 00:33N 47°35' W 122°23'3 2.9
2014-Nov-18 23:33N 47°33' W 122°20'0 0.3
2014-Nov-18 23:32N 47°33' W 122°20'0 0.3
2014-Nov-18 22:34N 47°33' W 122°20'0 0.0
2014-Nov-18 22:33N 47°33' W 122°20'0 0.0
2014-Nov-18 21:33N 47°33' W 122°20'0 2.4
2014-Nov-18 21:32N 47°33' W 122°20'1 1.1
2014-Nov-18 20:33N 47°34' W 122°21'0 0.0
2014-Nov-18 20:28N 47°34' W 122°21'0 0.0
2014-Nov-18 19:33N 47°34' W 122°21'0 0.1
2014-Nov-18 19:27N 47°34' W 122°21'2 2.0
2014-Nov-18 18:34N 47°32' W 122°20'0 0.0
2014-Nov-18 18:31N 47°32' W 122°20'1 1.0
2014-Nov-18 17:34N 47°33' W 122°21'0 0.0
2014-Nov-18 17:30N 47°33' W 122°21'1 0.1
2014-Nov-18 05:12N 47°34' W 122°21'0 0.0
2014-Nov-18 05:10N 47°34' W 122°21'4 6.1
2014-Nov-18 04:33N 47°38' W 122°23'0 0.2
2014-Nov-18 04:30N 47°38' W 122°23'0 0.4
2014-Nov-18 03:33N 47°37' W 122°23'0 0.1
2014-Nov-18 03:30N 47°37' W 122°23'4 3.7
2014-Nov-18 02:33N 47°34' W 122°21'0 0.1
2014-Nov-18 02:30N 47°34' W 122°21'1 0.6
2014-Nov-18 01:33N 47°34' W 122°21'1 9.4
2014-Nov-18 01:29N 47°33' W 122°20'0 0.0
2014-Nov-18 00:33N 47°33' W 122°20'0 0.9
2014-Nov-18 00:29N 47°33' W 122°20'3 2.9
2014-Nov-17 23:33N 47°35' W 122°22'1 7.5
2014-Nov-17 23:28N 47°35' W 122°21'3 3.2
2014-Nov-17 22:33N 47°33' W 122°20'0 2.0
2014-Nov-17 22:33N 47°33' W 122°20'3 2.8
2014-Nov-17 21:33N 47°35' W 122°21'0 0.0
2014-Nov-17 21:27N 47°35' W 122°21'1 0.9
2014-Nov-17 20:33N 47°35' W 122°22'0 8.9
2014-Nov-17 20:32N 47°34' W 122°21'0 0.0
2014-Nov-17 03:53N 47°34' W 122°21'1 4.0
2014-Nov-17 03:33N 47°35' W 122°21'0 0.1
2014-Nov-17 03:13N 47°35' W 122°21'3 4.0
2014-Nov-17 02:33N 47°36' W 122°25'4 5.8
2014-Nov-17 01:49N 47°34' W 122°30'1 3.3
2014-Nov-17 01:33N 47°34' W 122°32'2 2.5
2014-Nov-17 00:39N 47°34' W 122°28'110.9
2014-Nov-17 00:33N 47°35' W 122°27'1 9.8
2014-Nov-17 00:28N 47°35' W 122°26'  
Track history (hours):
 
Tides and Currents Weather Stations Pressure Air Temp Water Temp Dewpoint Dewpoint Depression Visibility Wind Speed Wind Dir Waves Ship Positions

Westrac

Owner: WESTERN TOWBOAT CO, SEATTLE, WA. More information available from US FCC via Universal Licensing System and Coast Guard Vessel Documentation Center.

Last reported at 2014-Nov-26 22:49 UTC. Time now 2014-Nov-28 09:45 UTC.
Position N 47°34' W 122°21'.

Length 23 m; draft 5 m.

Type: Tug. MMSI: 366993010.

Date/timePositionNaut miles runAvg speedWind from/ knotsBaromVisibWave heightAir tempDewpointWater temp
2014-Nov-26 22:49N 47°34' W 122°21'1 3.1
2014-Nov-26 22:33N 47°33' W 122°21'0 0.6
2014-Nov-26 22:29N 47°33' W 122°21'3 3.5
2014-Nov-26 21:33N 47°36' W 122°23'0 5.0
2014-Nov-26 21:29N 47°36' W 122°22'2 2.2
2014-Nov-26 20:33N 47°34' W 122°21'0 0.1
2014-Nov-26 20:29N 47°34' W 122°21'0 0.0
2014-Nov-26 19:33N 47°34' W 122°21'0 0.0
2014-Nov-26 19:29N 47°34' W 122°21'1 1.4
2014-Nov-26 18:34N 47°33' W 122°20'0 8.9
2014-Nov-26 18:33N 47°33' W 122°20'1 1.2
2014-Nov-26 17:33N 47°34' W 122°21'0 0.0
2014-Nov-26 17:29N 47°34' W 122°21'1 1.4
2014-Nov-26 16:33N 47°35' W 122°21'3 2.6
2014-Nov-26 15:33N 47°33' W 122°20'1 1.5
2014-Nov-26 14:33N 47°34' W 122°21'0 3.7
2014-Nov-26 14:29N 47°34' W 122°21'0 0.0
2014-Nov-26 01:45N 47°34' W 122°21'1 3.8
2014-Nov-26 01:33N 47°33' W 122°21'0 0.3
2014-Nov-26 01:21N 47°33' W 122°21'1 0.1
2014-Nov-25 19:33N 47°34' W 122°21'1 5.0
2014-Nov-25 19:19N 47°33' W 122°20'1 0.9
2014-Nov-25 18:33N 47°33' W 122°21'0 7.9
2014-Nov-25 18:33N 47°33' W 122°21'2 2.1
2014-Nov-25 17:33N 47°35' W 122°21'0 0.0
2014-Nov-25 17:33N 47°35' W 122°21'0 0.1
2014-Nov-25 16:33N 47°35' W 122°21'014.6
2014-Nov-25 16:33N 47°35' W 122°21'1 1.1
2014-Nov-25 15:33N 47°34' W 122°21'0 8.4
2014-Nov-25 15:33N 47°34' W 122°21'2 2.0
2014-Nov-25 14:33N 47°36' W 122°22'0 0.0
2014-Nov-25 14:33N 47°36' W 122°22'2 2.1
2014-Nov-25 13:33N 47°34' W 122°21'0 0.0
2014-Nov-25 13:33N 47°34' W 122°21'0 0.0
2014-Nov-25 12:33N 47°34' W 122°21'0 0.4
2014-Nov-25 12:33N 47°34' W 122°21'0 0.0
2014-Nov-25 11:33N 47°34' W 122°21'0 0.0
2014-Nov-25 11:33N 47°34' W 122°21'0 0.0
2014-Nov-25 10:33N 47°34' W 122°21'0 0.1
2014-Nov-25 10:28N 47°34' W 122°21'0 0.0
2014-Nov-25 09:33N 47°34' W 122°21'0 0.0
2014-Nov-25 09:31N 47°34' W 122°21'0 0.0
2014-Nov-25 08:33N 47°34' W 122°21'0 0.0
2014-Nov-25 08:31N 47°34' W 122°21'0 0.0
2014-Nov-25 07:33N 47°34' W 122°21'0 0.0
2014-Nov-25 07:32N 47°34' W 122°21'0 0.0
2014-Nov-25 07:01N 47°34' W 122°21'0 0.0
2014-Nov-25 06:33N 47°34' W 122°21'0 0.0
2014-Nov-25 05:33N 47°34' W 122°21'0 0.0
2014-Nov-25 05:31N 47°34' W 122°21'0 0.0
2014-Nov-25 04:33N 47°34' W 122°21'0 0.1
2014-Nov-25 04:31N 47°34' W 122°21'0 0.0
2014-Nov-25 03:33N 47°34' W 122°21'0 0.0
2014-Nov-25 03:31N 47°34' W 122°21'0 0.0
2014-Nov-25 02:33N 47°34' W 122°21'0 0.1
2014-Nov-25 02:31N 47°34' W 122°21'0 0.1
2014-Nov-25 01:33N 47°34' W 122°21'0 4.9
2014-Nov-25 01:31N 47°34' W 122°21'1 1.5
2014-Nov-25 00:33N 47°36' W 122°22'0 0.0
2014-Nov-25 00:31N 47°36' W 122°22'0 0.0
2014-Nov-24 23:33N 47°36' W 122°22'0 0.1
2014-Nov-24 23:31N 47°36' W 122°22'0 0.0
2014-Nov-24 22:33N 47°36' W 122°22'0 0.9
2014-Nov-24 22:31N 47°36' W 122°22'0 0.0
2014-Nov-24 21:33N 47°36' W 122°22'0 0.1
2014-Nov-24 21:30N 47°36' W 122°22'0 0.0
2014-Nov-24 20:33N 47°36' W 122°22'0 0.0
2014-Nov-24 20:30N 47°36' W 122°22'3 3.0
2014-Nov-24 19:33N 47°33' W 122°20'0 7.1
2014-Nov-24 19:30N 47°33' W 122°20'3 3.4
2014-Nov-24 18:33N 47°35' W 122°22'0 0.3
2014-Nov-24 18:30N 47°35' W 122°22'2 1.8
2014-Nov-24 17:33N 47°34' W 122°21'1 7.0
2014-Nov-24 17:29N 47°33' W 122°21'1 0.8
2014-Nov-24 16:34N 47°34' W 122°21'0 0.0
2014-Nov-24 16:33N 47°34' W 122°21'2 1.6
2014-Nov-24 15:33N 47°35' W 122°22'0 0.0
2014-Nov-24 15:33N 47°35' W 122°22'0 0.4
2014-Nov-24 14:33N 47°36' W 122°22'0 9.2
2014-Nov-24 14:33N 47°36' W 122°22'6 5.9
2014-Nov-24 13:33N 47°34' W 122°30'0 7.2
2014-Nov-24 13:33N 47°34' W 122°30'5 4.9
2014-Nov-24 12:33N 47°36' W 122°23'0 9.8
2014-Nov-24 12:33N 47°36' W 122°23'3 3.0
2014-Nov-24 11:33N 47°34' W 122°21'0 9.9
2014-Nov-24 11:33N 47°34' W 122°21'0 0.0
2014-Nov-23 17:33N 47°33' W 122°21'1 0.7
2014-Nov-23 16:33N 47°34' W 122°21'1 3.5
2014-Nov-23 16:13N 47°33' W 122°20'0 0.4
2014-Nov-23 15:33N 47°33' W 122°20'0 0.0
2014-Nov-23 15:33N 47°33' W 122°20'1 1.1
2014-Nov-23 14:33N 47°34' W 122°21'0 0.0
2014-Nov-23 01:47N 47°34' W 122°21'2 8.8
2014-Nov-23 01:33N 47°36' W 122°22'0 8.3
2014-Nov-23 01:32N 47°36' W 122°22'1 1.0
2014-Nov-23 00:33N 47°35' W 122°21'0 0.4
2014-Nov-23 00:32N 47°35' W 122°21'1 0.9
2014-Nov-22 23:33N 47°34' W 122°21'0 7.1
2014-Nov-22 23:31N 47°35' W 122°22'1 0.8
2014-Nov-22 22:33N 47°35' W 122°21'0 0.2
2014-Nov-22 22:31N 47°35' W 122°21'0 0.0
2014-Nov-22 21:33N 47°35' W 122°21'0 0.0
2014-Nov-22 21:31N 47°35' W 122°21'1 0.7
2014-Nov-22 20:33N 47°35' W 122°22'0 8.5
2014-Nov-22 20:31N 47°35' W 122°22'1 1.5
2014-Nov-22 19:33N 47°34' W 122°21'0 0.0
2014-Nov-22 19:31N 47°34' W 122°21'2 1.7
2014-Nov-22 18:31N 47°36' W 122°22'0 0.0
2014-Nov-22 18:31N 47°36' W 122°22'3 3.0
2014-Nov-22 17:33N 47°33' W 122°20'0 0.5
2014-Nov-22 17:31N 47°33' W 122°20'2 2.0
2014-Nov-22 16:33N 47°35' W 122°22'0 8.5
2014-Nov-22 16:31N 47°34' W 122°21'0 0.3
2014-Nov-22 15:33N 47°34' W 122°21'0 1.8
2014-Nov-22 15:30N 47°34' W 122°21'1 0.7
2014-Nov-22 14:33N 47°33' W 122°21'0 0.0
2014-Nov-22 14:30N 47°33' W 122°21'0 0.0
2014-Nov-22 13:24N 47°33' W 122°21'0 0.1
2014-Nov-22 11:33N 47°33' W 122°21'0 0.1
2014-Nov-22 10:29N 47°33' W 122°21'0 0.0
2014-Nov-22 09:57N 47°33' W 122°21'0 0.0
2014-Nov-22 09:33N 47°33' W 122°21'0 0.0
2014-Nov-22 08:32N 47°33' W 122°21'0 0.0
2014-Nov-22 07:38N 47°33' W 122°21'0 0.0
2014-Nov-22 07:30N 47°33' W 122°21'2 2.6
2014-Nov-22 06:33N 47°36' W 122°22'0 1.1
2014-Nov-22 06:32N 47°36' W 122°22'2 1.7
2014-Nov-22 05:33N 47°34' W 122°21'0 0.5
2014-Nov-22 05:32N 47°34' W 122°21'0 0.0
2014-Nov-22 04:33N 47°34' W 122°21'0 0.0
2014-Nov-22 04:32N 47°34' W 122°21'1 1.5
2014-Nov-22 03:33N 47°36' W 122°22'0 2.0
2014-Nov-22 03:32N 47°35' W 122°22'0 0.3
2014-Nov-22 02:33N 47°35' W 122°22'0 5.5
2014-Nov-22 02:32N 47°35' W 122°22'2 2.4
2014-Nov-22 01:33N 47°33' W 122°20'0 0.0
2014-Nov-22 01:31N 47°33' W 122°20'0 0.3
2014-Nov-22 00:33N 47°33' W 122°20'0 4.8
2014-Nov-22 00:31N 47°33' W 122°20'0 0.4
2014-Nov-21 23:33N 47°33' W 122°21'0 0.0
2014-Nov-21 23:31N 47°33' W 122°21'1 0.9
2014-Nov-21 22:33N 47°34' W 122°21'0 0.0
2014-Nov-21 22:31N 47°34' W 122°21'0 0.0
2014-Nov-21 21:33N 47°34' W 122°21'0 0.0
2014-Nov-21 21:32N 47°34' W 122°21'0 0.0
2014-Nov-21 20:33N 47°34' W 122°21'0 0.0
2014-Nov-21 20:26N 47°34' W 122°21'0 0.0
2014-Nov-21 19:33N 47°34' W 122°21'0 0.0
2014-Nov-21 19:31N 47°34' W 122°21'0 0.0
2014-Nov-21 18:33N 47°34' W 122°21'0 0.0
2014-Nov-21 18:31N 47°34' W 122°21'0 0.0
2014-Nov-21 17:33N 47°34' W 122°21'0 0.0
2014-Nov-21 17:20N 47°34' W 122°21'0 0.0
2014-Nov-21 16:33N 47°34' W 122°21'0 0.0
2014-Nov-21 16:30N 47°34' W 122°21'0 0.0
2014-Nov-21 15:33N 47°34' W 122°21'0 0.0
2014-Nov-21 15:30N 47°34' W 122°21'0 0.0
2014-Nov-21 14:33N 47°34' W 122°21'0 0.1
2014-Nov-21 14:30N 47°34' W 122°21'2 1.7
2014-Nov-21 13:33N 47°35' W 122°22'0 0.2
2014-Nov-21 13:29N 47°35' W 122°22'2 2.6
2014-Nov-21 12:33N 47°33' W 122°21'0 0.0
2014-Nov-21 12:29N 47°33' W 122°21'1 0.1
2014-Nov-21 04:20N 47°34' W 122°21'0 0.4
2014-Nov-21 04:18N 47°34' W 122°21'1 1.6
2014-Nov-21 03:33N 47°35' W 122°21'0 0.0
2014-Nov-21 03:33N 47°35' W 122°21'1 0.9
2014-Nov-21 02:33N 47°35' W 122°22'0 3.3
2014-Nov-21 02:32N 47°35' W 122°23'1 0.6
2014-Nov-21 01:33N 47°35' W 122°22'0 5.4
2014-Nov-21 01:33N 47°35' W 122°22'1 1.5
2014-Nov-21 00:33N 47°34' W 122°21'0 4.9
2014-Nov-21 00:33N 47°34' W 122°21'0 0.2
2014-Nov-20 22:36N 47°34' W 122°21'0 0.0
2014-Nov-20 22:34N 47°34' W 122°21'0 0.2
2014-Nov-20 22:31N 47°34' W 122°21'0 0.4
2014-Nov-20 21:33N 47°34' W 122°21'0 4.4
2014-Nov-20 21:30N 47°35' W 122°22'1 1.2
2014-Nov-20 20:33N 47°35' W 122°23'0 0.2
2014-Nov-20 20:31N 47°35' W 122°23'0 0.0
2014-Nov-20 19:33N 47°35' W 122°23'0 0.2
2014-Nov-20 19:31N 47°35' W 122°23'0 0.0
2014-Nov-20 18:33N 47°35' W 122°23'0 0.0
2014-Nov-20 18:31N 47°35' W 122°23'2 2.2
2014-Nov-20 17:33N 47°35' W 122°26'1 6.2
2014-Nov-20 17:21N 47°35' W 122°27'1 1.7
2014-Nov-20 16:34N 47°35' W 122°26'0 8.5
2014-Nov-20 16:30N 47°36' W 122°25'2 2.5
2014-Nov-20 15:33N 47°35' W 122°22'0 4.5
2014-Nov-20 15:30N 47°35' W 122°22'0 0.5
2014-Nov-20 14:34N 47°35' W 122°22'0 0.0
2014-Nov-20 14:30N 47°35' W 122°22'0 0.1
2014-Nov-20 13:34N 47°35' W 122°22'0 0.1
2014-Nov-20 13:30N 47°35' W 122°22'0 0.1
2014-Nov-20 12:34N 47°35' W 122°22'0 0.1
2014-Nov-20 12:30N 47°35' W 122°22'0 0.1
2014-Nov-20 11:34N 47°35' W 122°22'0 0.0
2014-Nov-20 11:29N 47°35' W 122°22'0 0.0
2014-Nov-20 10:33N 47°35' W 122°22'0 0.2
2014-Nov-20 10:29N 47°35' W 122°22'0 0.0
2014-Nov-20 09:33N 47°35' W 122°22'0 0.1
2014-Nov-20 09:29N 47°35' W 122°22'0 0.0
2014-Nov-20 08:33N 47°35' W 122°22'0 0.2
2014-Nov-20 08:28N 47°35' W 122°22'0 0.0
2014-Nov-20 07:49N 47°35' W 122°22'0 0.0
2014-Nov-20 07:34N 47°35' W 122°22'2 1.7
2014-Nov-20 06:31N 47°34' W 122°21'0 0.2
2014-Nov-20 06:28N 47°34' W 122°21'1 0.7
2014-Nov-20 05:33N 47°33' W 122°21'0 2.3
2014-Nov-20 05:33N 47°33' W 122°21'4 4.5
2014-Nov-20 04:33N 47°34' W 122°27'0 7.5
2014-Nov-20 04:32N 47°34' W 122°27'2 1.6
2014-Nov-20 03:33N 47°33' W 122°29'0 0.0
2014-Nov-20 03:32N 47°33' W 122°29'0 0.0
2014-Nov-20 02:34N 47°33' W 122°29'0 0.0
2014-Nov-20 01:33N 47°33' W 122°29'3 6.6
2014-Nov-20 01:09N 47°35' W 122°26'4 6.0
2014-Nov-20 00:33N 47°34' W 122°21'0 4.8
2014-Nov-20 00:29N 47°34' W 122°21'0 0.4
2014-Nov-19 23:33N 47°34' W 122°21'0 5.0
2014-Nov-19 23:29N 47°34' W 122°21'4 3.9
2014-Nov-19 22:33N 47°38' W 122°23'0 1.5
2014-Nov-19 22:28N 47°38' W 122°23'3 3.0
2014-Nov-19 21:34N 47°35' W 122°22'015.3
2014-Nov-19 21:33N 47°35' W 122°22'1 1.0
2014-Nov-19 20:33N 47°34' W 122°21'0 0.0
2014-Nov-19 20:23N 47°34' W 122°21'0 0.0
2014-Nov-19 19:33N 47°34' W 122°21'0 0.0
2014-Nov-19 19:32N 47°34' W 122°21'1 0.6
2014-Nov-19 18:33N 47°34' W 122°21'0 6.7
2014-Nov-19 18:32N 47°35' W 122°22'5 5.1
2014-Nov-19 17:34N 47°34' W 122°29'4 8.3
2014-Nov-19 17:05N 47°36' W 122°24'2 4.8
2014-Nov-19 16:34N 47°34' W 122°21'0 5.4
2014-Nov-19 16:30N 47°34' W 122°21'6 6.0
2014-Nov-19 15:34N 47°33' W 122°29'0 0.1
2014-Nov-19 15:30N 47°33' W 122°29'5 5.5
2014-Nov-19 14:32N 47°35' W 122°22'1 6.4
2014-Nov-19 14:19N 47°33' W 122°21'1 1.1
2014-Nov-19 13:34N 47°34' W 122°21'0 0.0
2014-Nov-19 13:29N 47°34' W 122°21'0 0.0
2014-Nov-19 12:33N 47°34' W 122°21'0 0.0
2014-Nov-19 12:29N 47°34' W 122°21'0 0.0
2014-Nov-19 11:33N 47°34' W 122°21'0 0.0
2014-Nov-19 11:29N 47°34' W 122°21'0 0.0
2014-Nov-19 10:33N 47°34' W 122°21'0 0.1
2014-Nov-19 10:29N 47°34' W 122°21'0 0.0
2014-Nov-19 09:33N 47°34' W 122°21'0 0.0
2014-Nov-19 09:29N 47°34' W 122°21'0 0.0
2014-Nov-19 08:33N 47°34' W 122°21'0 0.1
2014-Nov-19 08:28N 47°34' W 122°21'0 0.0
2014-Nov-19 07:34N 47°34' W 122°21'0 0.0
2014-Nov-19 07:33N 47°34' W 122°21'0 0.0
2014-Nov-19 06:58N 47°34' W 122°21'0 0.0
2014-Nov-19 06:33N 47°34' W 122°21'0 0.0
2014-Nov-19 05:34N 47°34' W 122°21'0 0.0
2014-Nov-19 05:33N 47°34' W 122°21'1 0.6
2014-Nov-19 04:33N 47°34' W 122°21'0 0.0
2014-Nov-19 04:33N 47°34' W 122°21'2 1.8
2014-Nov-19 03:33N 47°35' W 122°21'0 0.0
2014-Nov-19 03:33N 47°35' W 122°21'2 2.4
2014-Nov-19 02:34N 47°33' W 122°20'0 3.9
2014-Nov-19 02:32N 47°33' W 122°20'3 2.9
2014-Nov-19 01:33N 47°36' W 122°22'0 7.3
2014-Nov-19 01:33N 47°36' W 122°22'0 0.5
2014-Nov-19 00:34N 47°35' W 122°23'0 0.6
2014-Nov-19 00:33N 47°35' W 122°23'3 2.9
2014-Nov-18 23:33N 47°33' W 122°20'0 0.3
2014-Nov-18 23:32N 47°33' W 122°20'0 0.3
2014-Nov-18 22:34N 47°33' W 122°20'0 0.0
2014-Nov-18 22:33N 47°33' W 122°20'0 0.0
2014-Nov-18 21:33N 47°33' W 122°20'0 2.4
2014-Nov-18 21:32N 47°33' W 122°20'1 1.1
2014-Nov-18 20:33N 47°34' W 122°21'0 0.0
2014-Nov-18 20:28N 47°34' W 122°21'0 0.0
2014-Nov-18 19:33N 47°34' W 122°21'0 0.1
2014-Nov-18 19:27N 47°34' W 122°21'2 2.0
2014-Nov-18 18:34N 47°32' W 122°20'0 0.0
2014-Nov-18 18:31N 47°32' W 122°20'1 1.0
2014-Nov-18 17:34N 47°33' W 122°21'0 0.0
2014-Nov-18 17:30N 47°33' W 122°21'1 0.1
2014-Nov-18 05:12N 47°34' W 122°21'0 0.0
2014-Nov-18 05:10N 47°34' W 122°21'4 6.1
2014-Nov-18 04:33N 47°38' W 122°23'0 0.2
2014-Nov-18 04:30N 47°38' W 122°23'0 0.4
2014-Nov-18 03:33N 47°37' W 122°23'0 0.1
2014-Nov-18 03:30N 47°37' W 122°23'4 3.7
2014-Nov-18 02:33N 47°34' W 122°21'0 0.1
2014-Nov-18 02:30N 47°34' W 122°21'1 0.6
2014-Nov-18 01:33N 47°34' W 122°21'1 9.4
2014-Nov-18 01:29N 47°33' W 122°20'0 0.0
2014-Nov-18 00:33N 47°33' W 122°20'0 0.9
2014-Nov-18 00:29N 47°33' W 122°20'3 2.9
2014-Nov-17 23:33N 47°35' W 122°22'1 7.5
2014-Nov-17 23:28N 47°35' W 122°21'3 3.2
2014-Nov-17 22:33N 47°33' W 122°20'0 2.0
2014-Nov-17 22:33N 47°33' W 122°20'3 2.8
2014-Nov-17 21:33N 47°35' W 122°21'0 0.0
2014-Nov-17 21:27N 47°35' W 122°21'1 0.9
2014-Nov-17 20:33N 47°35' W 122°22'0 8.9
2014-Nov-17 20:32N 47°34' W 122°21'0 0.0
2014-Nov-17 03:53N 47°34' W 122°21'1 4.0
2014-Nov-17 03:33N 47°35' W 122°21'0 0.1
2014-Nov-17 03:13N 47°35' W 122°21'3 4.0
2014-Nov-17 02:33N 47°36' W 122°25'4 5.8
2014-Nov-17 01:49N 47°34' W 122°30'1 3.3
2014-Nov-17 01:33N 47°34' W 122°32'2 2.5
2014-Nov-17 00:39N 47°34' W 122°28'110.9
2014-Nov-17 00:33N 47°35' W 122°27'1 9.8
2014-Nov-17 00:28N 47°35' W 122°26'  

Dump ship's entire track history